sensor_id;sensor_type;location;lat;lon;timestamp;pressure;altitude;pressure_sealevel;temperature;humidity
69245;BME280;56357;52.304;4.870;2023-01-24T00:00:54;104178.09;;;16.87;50.42
69245;BME280;56357;52.304;4.870;2023-01-24T00:03:21;104171.81;;;16.85;50.26
69245;BME280;56357;52.304;4.870;2023-01-24T00:05:48;104177.41;;;16.85;50.06
69245;BME280;56357;52.304;4.870;2023-01-24T00:08:18;104170.66;;;16.80;50.12
69245;BME280;56357;52.304;4.870;2023-01-24T00:10:46;104177.59;;;16.84;50.25
69245;BME280;56357;52.304;4.870;2023-01-24T00:13:14;104164.84;;;16.81;50.03
69245;BME280;56357;52.304;4.870;2023-01-24T00:15:41;104158.41;;;16.81;50.14
69245;BME280;56357;52.304;4.870;2023-01-24T00:18:08;104162.25;;;16.80;50.22
69245;BME280;56357;52.304;4.870;2023-01-24T00:20:34;104158.69;;;16.86;50.28
69245;BME280;56357;52.304;4.870;2023-01-24T00:23:01;104147.00;;;16.82;50.38
69245;BME280;56357;52.304;4.870;2023-01-24T00:25:27;104143.75;;;16.79;50.21
69245;BME280;56357;52.304;4.870;2023-01-24T00:27:54;104150.00;;;16.81;50.14
69245;BME280;56357;52.304;4.870;2023-01-24T00:30:20;104155.63;;;16.81;49.87
69245;BME280;56357;52.304;4.870;2023-01-24T00:32:47;104158.78;;;16.78;50.37
69245;BME280;56357;52.304;4.870;2023-01-24T00:35:13;104157.06;;;16.77;49.96
69245;BME280;56357;52.304;4.870;2023-01-24T00:37:40;104150.38;;;16.78;49.90
69245;BME280;56357;52.304;4.870;2023-01-24T00:40:08;104148.19;;;16.73;49.89
69245;BME280;56357;52.304;4.870;2023-01-24T00:42:34;104144.31;;;16.74;50.18
69245;BME280;56357;52.304;4.870;2023-01-24T00:45:01;104137.00;;;16.73;50.08
69245;BME280;56357;52.304;4.870;2023-01-24T00:47:27;104144.88;;;16.70;50.06
69245;BME280;56357;52.304;4.870;2023-01-24T00:49:54;104133.41;;;16.65;49.88
69245;BME280;56357;52.304;4.870;2023-01-24T00:52:20;104138.44;;;16.69;50.19
69245;BME280;56357;52.304;4.870;2023-01-24T00:54:46;104137.16;;;16.72;49.98
69245;BME280;56357;52.304;4.870;2023-01-24T00:57:13;104137.34;;;16.70;50.03
69245;BME280;56357;52.304;4.870;2023-01-24T00:59:39;104125.88;;;16.65;49.85
69245;BME280;56357;52.304;4.870;2023-01-24T01:02:06;104139.38;;;16.62;50.01
69245;BME280;56357;52.304;4.870;2023-01-24T01:04:33;104137.25;;;16.64;50.04
69245;BME280;56357;52.304;4.870;2023-01-24T01:06:59;104130.31;;;16.60;50.09
69245;BME280;56357;52.304;4.870;2023-01-24T01:09:25;104139.88;;;16.65;49.77
69245;BME280;56357;52.304;4.870;2023-01-24T01:11:52;104140.63;;;16.59;49.92
69245;BME280;56357;52.304;4.870;2023-01-24T01:14:18;104137.34;;;16.56;50.15
69245;BME280;56357;52.304;4.870;2023-01-24T01:16:45;104139.06;;;16.57;49.90
69245;BME280;56357;52.304;4.870;2023-01-24T01:19:11;104138.41;;;16.55;49.86
69245;BME280;56357;52.304;4.870;2023-01-24T01:21:38;104134.34;;;16.57;50.05
69245;BME280;56357;52.304;4.870;2023-01-24T01:24:04;104137.84;;;16.59;50.01
69245;BME280;56357;52.304;4.870;2023-01-24T01:26:30;104141.19;;;16.55;49.98
69245;BME280;56357;52.304;4.870;2023-01-24T01:28:57;104133.19;;;16.52;49.71
69245;BME280;56357;52.304;4.870;2023-01-24T01:31:24;104132.84;;;16.46;49.96
69245;BME280;56357;52.304;4.870;2023-01-24T01:33:50;104129.38;;;16.44;50.11
69245;BME280;56357;52.304;4.870;2023-01-24T01:36:17;104141.38;;;16.53;49.55
69245;BME280;56357;52.304;4.870;2023-01-24T01:38:43;104139.84;;;16.51;49.98
69245;BME280;56357;52.304;4.870;2023-01-24T01:41:13;104150.50;;;16.47;50.09
69245;BME280;56357;52.304;4.870;2023-01-24T01:43:40;104148.22;;;16.51;49.74
69245;BME280;56357;52.304;4.870;2023-01-24T01:46:28;104145.47;;;16.42;49.87
69245;BME280;56357;52.304;4.870;2023-01-24T01:49:00;104145.09;;;16.45;49.99
69245;BME280;56357;52.304;4.870;2023-01-24T01:51:36;104139.22;;;16.40;49.65
69245;BME280;56357;52.304;4.870;2023-01-24T01:54:14;104145.31;;;16.44;49.80
69245;BME280;56357;52.304;4.870;2023-01-24T01:56:43;104145.09;;;16.45;49.46
69245;BME280;56357;52.304;4.870;2023-01-24T01:59:18;104130.44;;;16.43;49.64
69245;BME280;56357;52.304;4.870;2023-01-24T02:01:46;104136.91;;;16.44;49.67
69245;BME280;56357;52.304;4.870;2023-01-24T02:04:20;104132.56;;;16.41;49.51
69245;BME280;56357;52.304;4.870;2023-01-24T02:09:31;104126.09;;;16.41;49.81
69245;BME280;56357;52.304;4.870;2023-01-24T02:12:02;104118.09;;;16.38;49.72
69245;BME280;56357;52.304;4.870;2023-01-24T02:14:30;104121.94;;;16.37;50.07
69245;BME280;56357;52.304;4.870;2023-01-24T02:17:17;104128.97;;;16.33;49.77
69245;BME280;56357;52.304;4.870;2023-01-24T02:23:11;104122.88;;;16.29;49.72
69245;BME280;56357;52.304;4.870;2023-01-24T02:25:46;104133.03;;;16.30;50.01
69245;BME280;56357;52.304;4.870;2023-01-24T02:28:14;104115.94;;;16.25;49.67
69245;BME280;56357;52.304;4.870;2023-01-24T02:30:41;104121.53;;;16.25;49.79
69245;BME280;56357;52.304;4.870;2023-01-24T02:33:18;104124.63;;;16.30;49.61
69245;BME280;56357;52.304;4.870;2023-01-24T02:35:46;104110.72;;;16.22;49.54
69245;BME280;56357;52.304;4.870;2023-01-24T02:38:20;104120.69;;;16.25;49.51
69245;BME280;56357;52.304;4.870;2023-01-24T02:40:51;104126.75;;;16.28;49.51
69245;BME280;56357;52.304;4.870;2023-01-24T02:43:21;104128.00;;;16.26;49.17
69245;BME280;56357;52.304;4.870;2023-01-24T02:45:49;104122.78;;;16.23;49.68
69245;BME280;56357;52.304;4.870;2023-01-24T02:48:15;104098.56;;;16.15;49.73
69245;BME280;56357;52.304;4.870;2023-01-24T02:50:42;104120.16;;;16.21;49.74
69245;BME280;56357;52.304;4.870;2023-01-24T02:53:26;104108.69;;;16.16;49.53
69245;BME280;56357;52.304;4.870;2023-01-24T02:56:00;104109.44;;;16.10;49.64
69245;BME280;56357;52.304;4.870;2023-01-24T02:58:44;104114.84;;;16.12;49.58
69245;BME280;56357;52.304;4.870;2023-01-24T03:01:11;104118.50;;;16.12;49.48
69245;BME280;56357;52.304;4.870;2023-01-24T03:03:41;104119.94;;;16.08;49.68
69245;BME280;56357;52.304;4.870;2023-01-24T03:06:08;104122.53;;;16.10;49.65
69245;BME280;56357;52.304;4.870;2023-01-24T03:08:36;104117.22;;;16.00;49.94
69245;BME280;56357;52.304;4.870;2023-01-24T03:11:03;104122.38;;;16.11;50.06
69245;BME280;56357;52.304;4.870;2023-01-24T03:13:30;104113.09;;;16.11;49.90
69245;BME280;56357;52.304;4.870;2023-01-24T03:16:15;104118.31;;;16.14;49.99
69245;BME280;56357;52.304;4.870;2023-01-24T03:18:59;104115.72;;;16.12;50.13
69245;BME280;56357;52.304;4.870;2023-01-24T03:21:42;104106.44;;;16.12;50.02
69245;BME280;56357;52.304;4.870;2023-01-24T03:24:26;104113.25;;;16.17;49.67
69245;BME280;56357;52.304;4.870;2023-01-24T03:27:10;104102.91;;;16.18;49.70
69245;BME280;56357;52.304;4.870;2023-01-24T03:29:55;104106.50;;;16.26;49.94
69245;BME280;56357;52.304;4.870;2023-01-24T03:32:39;104109.84;;;16.22;49.74
69245;BME280;56357;52.304;4.870;2023-01-24T03:35:23;104105.81;;;16.24;49.69
69245;BME280;56357;52.304;4.870;2023-01-24T03:37:50;104113.31;;;16.24;49.86
69245;BME280;56357;52.304;4.870;2023-01-24T03:40:34;104102.63;;;16.27;49.84
69245;BME280;56357;52.304;4.870;2023-01-24T03:43:02;104106.00;;;16.23;50.03
69245;BME280;56357;52.304;4.870;2023-01-24T03:45:34;104109.09;;;16.28;49.92
69245;BME280;56357;52.304;4.870;2023-01-24T03:48:06;104110.47;;;16.32;49.83
69245;BME280;56357;52.304;4.870;2023-01-24T03:50:39;104098.47;;;16.23;49.85
69245;BME280;56357;52.304;4.870;2023-01-24T03:53:26;104110.72;;;16.22;50.16
69245;BME280;56357;52.304;4.870;2023-01-24T03:55:55;104111.34;;;16.32;49.88
69245;BME280;56357;52.304;4.870;2023-01-24T03:58:23;104114.50;;;16.29;49.85
69245;BME280;56357;52.304;4.870;2023-01-24T04:00:49;104111.13;;;16.34;49.79
69245;BME280;56357;52.304;4.870;2023-01-24T04:03:17;104110.66;;;16.30;50.08
69245;BME280;56357;52.304;4.870;2023-01-24T04:05:46;104105.06;;;16.30;49.92
69245;BME280;56357;52.304;4.870;2023-01-24T04:08:12;104107.53;;;16.25;49.99
69245;BME280;56357;52.304;4.870;2023-01-24T04:10:39;104110.25;;;16.33;49.91
69245;BME280;56357;52.304;4.870;2023-01-24T04:13:05;104106.50;;;16.26;50.10
69245;BME280;56357;52.304;4.870;2023-01-24T04:15:32;104100.16;;;16.32;50.34
69245;BME280;56357;52.304;4.870;2023-01-24T04:18:01;104099.16;;;16.25;50.06
69245;BME280;56357;52.304;4.870;2023-01-24T04:20:30;104107.47;;;16.33;49.95
69245;BME280;56357;52.304;4.870;2023-01-24T04:23:00;104101.88;;;16.33;49.82
69245;BME280;56357;52.304;4.870;2023-01-24T04:25:26;104096.66;;;16.30;50.01
69245;BME280;56357;52.304;4.870;2023-01-24T04:27:53;104107.19;;;16.43;49.38
69245;BME280;56357;52.304;4.870;2023-01-24T04:30:19;104114.63;;;16.36;50.13
69245;BME280;56357;52.304;4.870;2023-01-24T04:32:46;104113.75;;;16.35;49.86
69245;BME280;56357;52.304;4.870;2023-01-24T04:35:17;104120.00;;;16.37;49.87
69245;BME280;56357;52.304;4.870;2023-01-24T04:37:44;104124.16;;;16.41;49.90
69245;BME280;56357;52.304;4.870;2023-01-24T04:40:11;104119.94;;;16.45;49.96
69245;BME280;56357;52.304;4.870;2023-01-24T04:42:38;104118.56;;;16.41;49.81
69245;BME280;56357;52.304;4.870;2023-01-24T04:45:05;104123.97;;;16.43;49.87
69245;BME280;56357;52.304;4.870;2023-01-24T04:47:32;104126.09;;;16.41;49.85
69245;BME280;56357;52.304;4.870;2023-01-24T04:49:58;104125.25;;;16.40;49.91
69245;BME280;56357;52.304;4.870;2023-01-24T04:52:25;104126.09;;;16.41;49.94
69245;BME280;56357;52.304;4.870;2023-01-24T04:54:51;104129.56;;;16.43;50.07
69245;BME280;56357;52.304;4.870;2023-01-24T04:57:18;104130.25;;;16.45;49.93
69245;BME280;56357;52.304;4.870;2023-01-24T04:59:45;104126.22;;;16.47;49.78
69245;BME280;56357;52.304;4.870;2023-01-24T05:02:11;104126.22;;;16.47;49.87
69245;BME280;56357;52.304;4.870;2023-01-24T05:04:37;104127.13;;;16.48;49.66
69245;BME280;56357;52.304;4.870;2023-01-24T05:07:04;104121.66;;;16.46;49.53
69245;BME280;56357;52.304;4.870;2023-01-24T05:09:31;104133.56;;;16.48;49.67
69245;BME280;56357;52.304;4.870;2023-01-24T05:11:57;104130.41;;;16.52;49.61
69245;BME280;56357;52.304;4.870;2023-01-24T05:14:23;104127.84;;;16.42;49.95
69245;BME280;56357;52.304;4.870;2023-01-24T05:16:50;104134.69;;;16.39;50.40
69245;BME280;56357;52.304;4.870;2023-01-24T05:19:16;104133.56;;;16.48;49.66
69245;BME280;56357;52.304;4.870;2023-01-24T05:21:43;104141.44;;;16.45;50.09
69245;BME280;56357;52.304;4.870;2023-01-24T05:24:09;104148.09;;;16.44;49.92
69245;BME280;56357;52.304;4.870;2023-01-24T05:26:35;104150.34;;;16.48;49.74
69245;BME280;56357;52.304;4.870;2023-01-24T05:29:02;104149.09;;;16.51;50.01
69245;BME280;56357;52.304;4.870;2023-01-24T05:31:28;104150.50;;;16.47;49.88
69245;BME280;56357;52.304;4.870;2023-01-24T05:33:55;104147.66;;;16.55;49.66
69245;BME280;56357;52.304;4.870;2023-01-24T05:36:22;104146.00;;;16.46;50.03
69245;BME280;56357;52.304;4.870;2023-01-24T05:38:49;104146.50;;;16.50;49.82
69245;BME280;56357;52.304;4.870;2023-01-24T05:41:18;104142.28;;;16.54;49.68
69245;BME280;56357;52.304;4.870;2023-01-24T05:43:45;104138.63;;;16.45;49.75
69245;BME280;56357;52.304;4.870;2023-01-24T05:46:14;104151.72;;;16.53;50.04
69245;BME280;56357;52.304;4.870;2023-01-24T05:48:42;104153.63;;;16.52;49.92
69245;BME280;56357;52.304;4.870;2023-01-24T05:51:10;104149.31;;;16.50;49.92
69245;BME280;56357;52.304;4.870;2023-01-24T05:53:38;104150.34;;;16.48;49.84
69245;BME280;56357;52.304;4.870;2023-01-24T05:56:14;104148.28;;;16.42;50.01
69245;BME280;56357;52.304;4.870;2023-01-24T05:58:42;104134.91;;;16.53;49.80
69245;BME280;56357;52.304;4.870;2023-01-24T06:01:12;104150.25;;;16.57;49.96
69245;BME280;56357;52.304;4.870;2023-01-24T06:03:40;104143.91;;;16.48;49.77
69245;BME280;56357;52.304;4.870;2023-01-24T06:06:08;104139.16;;;16.48;50.04
69245;BME280;56357;52.304;4.870;2023-01-24T06:08:34;104154.31;;;16.54;50.22
69245;BME280;56357;52.304;4.870;2023-01-24T06:11:03;104154.50;;;16.53;50.46
69245;BME280;56357;52.304;4.870;2023-01-24T06:13:31;104159.22;;;16.52;50.04
69245;BME280;56357;52.304;4.870;2023-01-24T06:16:04;104154.97;;;16.56;50.00
69245;BME280;56357;52.304;4.870;2023-01-24T06:18:32;104152.78;;;16.52;50.09
69245;BME280;56357;52.304;4.870;2023-01-24T06:21:04;104146.63;;;16.33;50.83
69245;BME280;56357;52.304;4.870;2023-01-24T06:23:31;104152.97;;;16.50;50.78
69245;BME280;56357;52.304;4.870;2023-01-24T06:25:58;104154.41;;;16.61;50.32
69245;BME280;56357;52.304;4.870;2023-01-24T06:28:24;104146.78;;;16.55;50.40
69245;BME280;56357;52.304;4.870;2023-01-24T06:31:01;104160.78;;;16.55;50.42
69245;BME280;56357;52.304;4.870;2023-01-24T06:36:48;104147.94;;;16.60;51.33
69245;BME280;56357;52.304;4.870;2023-01-24T06:39:19;104154.97;;;16.56;51.02
69245;BME280;56357;52.304;4.870;2023-01-24T06:41:47;104159.16;;;16.60;51.49
69245;BME280;56357;52.304;4.870;2023-01-24T06:44:14;104151.63;;;16.61;50.93
69245;BME280;56357;52.304;4.870;2023-01-24T06:46:40;104159.91;;;16.54;51.68
69245;BME280;56357;52.304;4.870;2023-01-24T06:49:10;104154.41;;;16.61;51.94
69245;BME280;56357;52.304;4.870;2023-01-24T06:51:37;104171.97;;;16.55;51.91
69245;BME280;56357;52.304;4.870;2023-01-24T06:54:03;104172.97;;;16.62;52.25
69245;BME280;56357;52.304;4.870;2023-01-24T06:56:30;104178.84;;;16.67;52.47
69245;BME280;56357;52.304;4.870;2023-01-24T06:58:57;104169.50;;;16.60;52.92
69245;BME280;56357;52.304;4.870;2023-01-24T07:01:23;104153.94;;;16.57;52.77
69245;BME280;56357;52.304;4.870;2023-01-24T07:03:50;104179.03;;;16.65;52.64
69245;BME280;56357;52.304;4.870;2023-01-24T07:06:16;104185.22;;;16.75;52.38
69245;BME280;56357;52.304;4.870;2023-01-24T07:08:44;104179.81;;;16.74;51.98
69245;BME280;56357;52.304;4.870;2023-01-24T07:11:11;104173.94;;;16.69;51.52
69245;BME280;56357;52.304;4.870;2023-01-24T07:13:37;104177.19;;;16.58;49.24
69245;BME280;56357;52.304;4.870;2023-01-24T07:16:04;104182.81;;;16.58;49.31
69245;BME280;56357;52.304;4.870;2023-01-24T07:18:31;104175.25;;;16.58;49.36
69245;BME280;56357;52.304;4.870;2023-01-24T07:20:57;104194.69;;;16.60;49.32
69245;BME280;56357;52.304;4.870;2023-01-24T07:23:26;104194.84;;;16.58;49.71
69245;BME280;56357;52.304;4.870;2023-01-24T07:25:53;104186.63;;;16.57;49.42
69245;BME280;56357;52.304;4.870;2023-01-24T07:28:20;104194.00;;;16.58;48.77
69245;BME280;56357;52.304;4.870;2023-01-24T07:30:48;104198.22;;;16.54;48.61
69245;BME280;56357;52.304;4.870;2023-01-24T07:33:15;104202.56;;;16.56;48.97
69245;BME280;56357;52.304;4.870;2023-01-24T07:35:42;104201.03;;;16.54;49.30
69245;BME280;56357;52.304;4.870;2023-01-24T07:38:09;104200.44;;;16.58;48.76
69245;BME280;56357;52.304;4.870;2023-01-24T07:40:37;104200.69;;;16.48;48.90
69245;BME280;56357;52.304;4.870;2023-01-24T07:43:05;104191.94;;;16.52;49.21
69245;BME280;56357;52.304;4.870;2023-01-24T07:45:32;104193.31;;;16.56;49.06
69245;BME280;56357;52.304;4.870;2023-01-24T07:48:00;104206.03;;;16.58;49.28
69245;BME280;56357;52.304;4.870;2023-01-24T07:50:26;104194.78;;;16.43;49.40
69245;BME280;56357;52.304;4.870;2023-01-24T07:52:55;104208.75;;;16.52;49.17
69245;BME280;56357;52.304;4.870;2023-01-24T07:55:22;104211.34;;;16.53;49.33
69245;BME280;56357;52.304;4.870;2023-01-24T07:57:49;104207.84;;;16.51;49.40
69245;BME280;56357;52.304;4.870;2023-01-24T08:00:16;104191.47;;;16.48;49.20
69245;BME280;56357;52.304;4.870;2023-01-24T08:02:43;104210.25;;;16.54;49.00
69245;BME280;56357;52.304;4.870;2023-01-24T08:05:10;104206.78;;;16.52;49.20
69245;BME280;56357;52.304;4.870;2023-01-24T08:07:37;104198.06;;;16.47;49.51
69245;BME280;56357;52.304;4.870;2023-01-24T08:10:04;104210.34;;;16.46;49.62
69245;BME280;56357;52.304;4.870;2023-01-24T08:12:30;104212.94;;;16.47;50.11
69245;BME280;56357;52.304;4.870;2023-01-24T08:14:57;104220.66;;;16.45;50.24
69245;BME280;56357;52.304;4.870;2023-01-24T08:17:23;104213.28;;;16.44;50.19
69245;BME280;56357;52.304;4.870;2023-01-24T08:19:50;104207.91;;;16.43;51.11
69245;BME280;56357;52.304;4.870;2023-01-24T08:22:16;104222.97;;;16.42;50.68
69245;BME280;56357;52.304;4.870;2023-01-24T08:24:42;104221.69;;;16.44;50.68
69245;BME280;56357;52.304;4.870;2023-01-24T08:27:09;104223.63;;;16.44;50.77
69245;BME280;56357;52.304;4.870;2023-01-24T08:29:36;104236.34;;;16.46;51.50
69245;BME280;56357;52.304;4.870;2023-01-24T08:32:02;104232.34;;;16.49;51.34
69245;BME280;56357;52.304;4.870;2023-01-24T08:34:29;104240.59;;;16.42;51.05
69245;BME280;56357;52.304;4.870;2023-01-24T08:36:55;104234.63;;;16.45;51.15
69245;BME280;56357;52.304;4.870;2023-01-24T08:39:21;104244.84;;;16.38;51.56
69245;BME280;56357;52.304;4.870;2023-01-24T08:41:48;104251.94;;;16.49;51.75
69245;BME280;56357;52.304;4.870;2023-01-24T08:44:15;104259.81;;;16.45;51.69
69245;BME280;56357;52.304;4.870;2023-01-24T08:46:42;104255.66;;;16.41;52.05
69245;BME280;56357;52.304;4.870;2023-01-24T08:49:11;104252.81;;;16.50;52.45
69245;BME280;56357;52.304;4.870;2023-01-24T08:51:38;104255.81;;;16.48;52.56
69245;BME280;56357;52.304;4.870;2023-01-24T08:54:05;104249.84;;;16.43;52.00
69245;BME280;56357;52.304;4.870;2023-01-24T08:56:32;104264.91;;;16.42;52.43
69245;BME280;56357;52.304;4.870;2023-01-24T08:58:59;104256.72;;;16.40;52.57
69245;BME280;56357;52.304;4.870;2023-01-24T09:01:26;104260.56;;;16.39;52.54
69245;BME280;56357;52.304;4.870;2023-01-24T09:03:52;104259.50;;;16.40;52.79
69245;BME280;56357;52.304;4.870;2023-01-24T09:06:22;104259.31;;;16.42;52.43
69245;BME280;56357;52.304;4.870;2023-01-24T09:08:53;104257.69;;;16.47;52.92
69245;BME280;56357;52.304;4.870;2023-01-24T09:11:21;104256.13;;;16.45;52.98
69245;BME280;56357;52.304;4.870;2023-01-24T09:13:47;104257.94;;;16.38;52.72
69245;BME280;56357;52.304;4.870;2023-01-24T09:16:14;104264.72;;;16.43;53.12
69245;BME280;56357;52.304;4.870;2023-01-24T09:18:40;104257.38;;;16.42;52.90
69245;BME280;56357;52.304;4.870;2023-01-24T09:21:06;104254.53;;;16.51;52.17
69245;BME280;56357;52.304;4.870;2023-01-24T09:23:33;104258.16;;;16.36;52.41
69245;BME280;56357;52.304;4.870;2023-01-24T09:25:59;104252.91;;;16.33;52.47
69245;BME280;56357;52.304;4.870;2023-01-24T09:28:26;104257.66;;;16.56;52.76
69245;BME280;56357;52.304;4.870;2023-01-24T09:30:52;104257.75;;;17.43;50.15
69245;BME280;56357;52.304;4.870;2023-01-24T09:33:19;104269.72;;;16.93;50.95
69245;BME280;56357;52.304;4.870;2023-01-24T09:35:56;104267.94;;;16.78;51.71
69245;BME280;56357;52.304;4.870;2023-01-24T09:38:27;104266.09;;;16.70;52.00
69245;BME280;56357;52.304;4.870;2023-01-24T09:48:59;104275.53;;;16.46;53.57
69245;BME280;56357;52.304;4.870;2023-01-24T09:51:30;104275.91;;;16.66;52.83
69245;BME280;56357;52.304;4.870;2023-01-24T09:54:00;104276.31;;;16.63;53.85
69245;BME280;56357;52.304;4.870;2023-01-24T09:56:33;104270.59;;;16.94;52.71
69245;BME280;56357;52.304;4.870;2023-01-24T09:59:09;104277.75;;;17.11;52.19
69245;BME280;56357;52.304;4.870;2023-01-24T10:01:39;104277.22;;;16.93;52.59
69245;BME280;56357;52.304;4.870;2023-01-24T10:04:15;104275.78;;;16.97;52.65
69245;BME280;56357;52.304;4.870;2023-01-24T10:15:45;104279.69;;;17.83;50.40
69245;BME280;56357;52.304;4.870;2023-01-24T10:18:28;104286.84;;;17.27;51.79
69245;BME280;56357;52.304;4.870;2023-01-24T10:23:40;104281.44;;;17.11;55.47
69245;BME280;56357;52.304;4.870;2023-01-24T10:26:17;104277.44;;;17.06;54.49
69245;BME280;56357;52.304;4.870;2023-01-24T10:28:53;104280.06;;;17.07;55.50
69245;BME280;56357;52.304;4.870;2023-01-24T10:31:34;104276.47;;;16.99;56.74
69245;BME280;56357;52.304;4.870;2023-01-24T10:34:20;104274.91;;;16.96;57.58
69245;BME280;56357;52.304;4.870;2023-01-24T10:36:58;104276.75;;;16.89;57.65
69245;BME280;56357;52.304;4.870;2023-01-24T10:39:25;104279.34;;;16.91;56.71
69245;BME280;56357;52.304;4.870;2023-01-24T10:41:52;104275.88;;;16.89;56.59
69245;BME280;56357;52.304;4.870;2023-01-24T10:44:30;104269.44;;;16.88;55.99
69245;BME280;56357;52.304;4.870;2023-01-24T10:50:03;104264.25;;;16.77;55.69
69245;BME280;56357;52.304;4.870;2023-01-24T10:52:30;104250.94;;;16.65;55.46
69245;BME280;56357;52.304;4.870;2023-01-24T10:55:00;104262.25;;;16.71;55.40
69245;BME280;56357;52.304;4.870;2023-01-24T11:00:16;104263.09;;;16.72;55.27
69245;BME280;56357;52.304;4.870;2023-01-24T11:02:47;104259.53;;;16.63;54.72
69245;BME280;56357;52.304;4.870;2023-01-24T11:05:14;104260.38;;;16.64;54.73
69245;BME280;56357;52.304;4.870;2023-01-24T11:07:47;104250.25;;;16.63;54.28
69245;BME280;56357;52.304;4.870;2023-01-24T11:12:55;104252.91;;;16.56;54.11
69245;BME280;56357;52.304;4.870;2023-01-24T11:15:28;104252.75;;;16.58;54.35
69245;BME280;56357;52.304;4.870;2023-01-24T11:18:23;104250.63;;;16.60;54.67
69245;BME280;56357;52.304;4.870;2023-01-24T11:21:10;104250.22;;;16.48;54.51
69245;BME280;56357;52.304;4.870;2023-01-24T11:23:38;104240.03;;;16.47;54.08
69245;BME280;56357;52.304;4.870;2023-01-24T11:26:05;104243.72;;;16.47;53.75
69245;BME280;56357;52.304;4.870;2023-01-24T11:28:33;104242.66;;;16.48;53.43
69245;BME280;56357;52.304;4.870;2023-01-24T11:31:27;104242.34;;;16.43;53.40
69245;BME280;56357;52.304;4.870;2023-01-24T11:39:46;104229.09;;;16.37;53.06
69245;BME280;56357;52.304;4.870;2023-01-24T11:42:34;104222.06;;;16.41;52.77
69245;BME280;56357;52.304;4.870;2023-01-24T11:45:45;104231.03;;;16.37;52.61
69245;BME280;56357;52.304;4.870;2023-01-24T11:48:08;104223.50;;;16.37;52.55
69245;BME280;56357;52.304;4.870;2023-01-24T12:01:21;104220.97;;;16.28;52.38
69245;BME280;56357;52.304;4.870;2023-01-24T12:04:07;104215.56;;;16.26;52.08
69245;BME280;56357;52.304;4.870;2023-01-24T12:15:06;104194.69;;;16.14;51.40
69245;BME280;56357;52.304;4.870;2023-01-24T12:17:49;104193.81;;;16.14;51.32
69245;BME280;56357;52.304;4.870;2023-01-24T12:22:52;104195.06;;;16.11;51.62
69245;BME280;56357;52.304;4.870;2023-01-24T12:25:34;104185.81;;;16.11;51.12
69245;BME280;56357;52.304;4.870;2023-01-24T12:28:05;104184.06;;;16.10;51.44
69245;BME280;56357;52.304;4.870;2023-01-24T12:30:49;104184.81;;;16.04;51.43
69245;BME280;56357;52.304;4.870;2023-01-24T12:33:27;104181.84;;;16.05;51.61
69245;BME280;56357;52.304;4.870;2023-01-24T12:36:06;104176.59;;;16.02;51.26
69245;BME280;56357;52.304;4.870;2023-01-24T12:38:40;104170.03;;;15.95;51.11
69245;BME280;56357;52.304;4.870;2023-01-24T12:41:33;104176.59;;;16.02;51.14
69245;BME280;56357;52.304;4.870;2023-01-24T12:44:37;104172.44;;;15.98;51.05
69245;BME280;56357;52.304;4.870;2023-01-24T12:47:32;104169.63;;;15.98;51.16
69245;BME280;56357;52.304;4.870;2023-01-24T12:52:54;104173.50;;;15.97;50.86
69245;BME280;56357;52.304;4.870;2023-01-24T12:55:32;104149.78;;;15.93;51.39
69245;BME280;56357;52.304;4.870;2023-01-24T12:58:13;104168.31;;;15.94;51.60
69245;BME280;56357;52.304;4.870;2023-01-24T13:01:06;104160.75;;;15.95;51.51
69245;BME280;56357;52.304;4.870;2023-01-24T13:03:53;104150.84;;;15.92;51.50
69245;BME280;56357;52.304;4.870;2023-01-24T13:09:23;104148.41;;;15.89;51.15
69245;BME280;56357;52.304;4.870;2023-01-24T13:11:55;104144.94;;;15.87;51.12
69245;BME280;56357;52.304;4.870;2023-01-24T13:22:22;104141.16;;;15.80;51.23
69245;BME280;56357;52.304;4.870;2023-01-24T13:27:40;104137.13;;;15.83;50.96
69245;BME280;56357;52.304;4.870;2023-01-24T13:30:31;104141.50;;;15.77;51.00
69245;BME280;56357;52.304;4.870;2023-01-24T13:33:01;104146.06;;;15.78;50.84
69245;BME280;56357;52.304;4.870;2023-01-24T13:35:28;104143.06;;;15.80;50.52
69245;BME280;56357;52.304;4.870;2023-01-24T13:38:34;104139.59;;;15.78;50.94
69245;BME280;56357;52.304;4.870;2023-01-24T13:41:06;104143.75;;;15.82;50.54
69245;BME280;56357;52.304;4.870;2023-01-24T13:46:03;104137.88;;;15.77;50.70
69245;BME280;56357;52.304;4.870;2023-01-24T13:53:58;104131.78;;;15.73;50.61
69245;BME280;56357;52.304;4.870;2023-01-24T13:56:25;104130.03;;;15.72;50.73
69245;BME280;56357;52.304;4.870;2023-01-24T13:58:52;104111.00;;;15.68;50.27
69245;BME280;56357;52.304;4.870;2023-01-24T14:01:20;104123.41;;;15.73;50.46
69245;BME280;56357;52.304;4.870;2023-01-24T14:06:23;104123.56;;;15.72;50.54
69245;BME280;56357;52.304;4.870;2023-01-24T14:09:00;104125.19;;;15.66;50.20
69245;BME280;56357;52.304;4.870;2023-01-24T14:11:32;104113.69;;;15.61;50.56
69245;BME280;56357;52.304;4.870;2023-01-24T14:14:24;104116.09;;;15.64;50.38
69245;BME280;56357;52.304;4.870;2023-01-24T14:19:22;104120.47;;;15.67;50.19
69245;BME280;56357;52.304;4.870;2023-01-24T14:25:01;104117.53;;;15.60;50.06
69245;BME280;56357;52.304;4.870;2023-01-24T14:27:46;104120.31;;;15.60;50.06
69245;BME280;56357;52.304;4.870;2023-01-24T14:35:19;104131.56;;;15.52;50.11
69245;BME280;56357;52.304;4.870;2023-01-24T14:37:47;104137.84;;;15.54;50.20
69245;BME280;56357;52.304;4.870;2023-01-24T14:42:44;104134.00;;;15.55;49.86
69245;BME280;56357;52.304;4.870;2023-01-24T14:45:16;104129.13;;;15.49;49.84
69245;BME280;56357;52.304;4.870;2023-01-24T14:47:47;104142.56;;;15.53;49.90
69245;BME280;56357;52.304;4.870;2023-01-24T14:50:21;104134.53;;;15.50;50.03
69245;BME280;56357;52.304;4.870;2023-01-24T14:52:48;104134.72;;;15.49;50.07